createdAt,value
2023-11-21T00:01:53.193Z,99.90
2023-11-21T00:05:36.519Z,99.90
2023-11-21T00:09:19.005Z,99.90
2023-11-21T00:13:00.981Z,99.90
2023-11-21T00:16:43.129Z,99.90
2023-11-21T00:20:25.044Z,99.90
2023-11-21T00:24:07.052Z,99.90
2023-11-21T00:27:48.840Z,99.90
2023-11-21T00:31:31.945Z,99.90
2023-11-21T00:35:13.772Z,99.90
2023-11-21T00:38:56.922Z,99.90
2023-11-21T00:42:38.866Z,99.90
2023-11-21T00:46:20.783Z,99.90
2023-11-21T00:50:02.723Z,99.90
2023-11-21T00:53:44.550Z,99.90
2023-11-21T00:57:26.631Z,99.90
2023-11-21T01:01:08.747Z,99.90
2023-11-21T01:04:50.646Z,99.90
2023-11-21T01:08:32.534Z,99.90
2023-11-21T01:12:14.354Z,99.90
2023-11-21T01:15:56.690Z,99.90
2023-11-21T01:19:38.718Z,99.90
2023-11-21T01:23:20.999Z,99.90
2023-11-21T01:27:02.975Z,99.90
2023-11-21T01:30:45.769Z,99.90
2023-11-21T01:34:28.049Z,99.90
2023-11-21T01:38:09.905Z,99.90
2023-11-21T01:41:53.166Z,99.90
2023-11-21T01:45:35.187Z,99.90
2023-11-21T01:49:17.360Z,99.90
2023-11-21T01:52:59.452Z,99.90
2023-11-21T01:56:41.468Z,99.90
2023-11-21T02:00:24.795Z,99.90
2023-11-21T02:04:09.562Z,99.90
2023-11-21T02:07:53.332Z,99.90
2023-11-21T02:11:36.098Z,99.90
2023-11-21T02:15:21.324Z,99.90
2023-11-21T02:19:07.852Z,99.90
2023-11-21T02:23:01.494Z,99.90
2023-11-21T02:26:43.698Z,99.90
2023-11-21T02:30:34.337Z,99.90
2023-11-21T02:34:17.360Z,99.90
2023-11-21T02:37:59.179Z,99.90
2023-11-21T02:41:41.337Z,99.90
2023-11-21T02:45:23.568Z,99.90
2023-11-21T02:49:07.362Z,99.90
2023-11-21T02:52:49.304Z,99.90
2023-11-21T02:56:31.250Z,99.90
2023-11-21T03:00:16.698Z,99.90
2023-11-21T03:03:58.736Z,99.90
2023-11-21T03:07:41.641Z,99.90
2023-11-21T03:11:23.685Z,99.90
2023-11-21T03:15:07.482Z,99.90
2023-11-21T03:18:49.455Z,99.90
2023-11-21T03:22:31.329Z,99.90
2023-11-21T03:26:14.528Z,99.90
2023-11-21T03:29:56.812Z,99.90
2023-11-21T03:33:38.912Z,99.90
2023-11-21T03:37:21.876Z,99.90
2023-11-21T03:41:03.780Z,99.90
2023-11-21T03:44:45.629Z,99.90
2023-11-21T03:48:27.526Z,99.90
2023-11-21T03:52:10.261Z,99.90
2023-11-21T03:55:52.217Z,99.90
2023-11-21T03:59:34.140Z,99.90
2023-11-21T04:03:16.781Z,99.90
2023-11-21T04:06:58.697Z,99.90
2023-11-21T04:10:40.846Z,99.90
2023-11-21T04:14:23.082Z,99.90
2023-11-21T04:18:05.026Z,99.90
2023-11-21T04:21:47.167Z,99.90
2023-11-21T04:25:29.539Z,99.90
2023-11-21T04:29:11.441Z,99.90
2023-11-21T04:32:53.408Z,99.90
2023-11-21T04:36:36.104Z,99.90
2023-11-21T04:40:18.376Z,99.90
2023-11-21T04:44:02.018Z,99.90
2023-11-21T04:47:44.829Z,99.90
2023-11-21T04:51:26.722Z,99.90
2023-11-21T04:55:11.375Z,99.90
2023-11-21T04:58:55.039Z,99.90
2023-11-21T05:02:37.051Z,99.90
2023-11-21T05:06:18.950Z,99.90
2023-11-21T05:10:00.797Z,99.90
2023-11-21T05:13:42.650Z,99.90
2023-11-21T05:17:24.566Z,99.90
2023-11-21T05:21:06.617Z,99.90
2023-11-21T05:24:48.469Z,99.90
2023-11-21T05:28:30.350Z,99.90
2023-11-21T05:32:12.318Z,99.90
2023-11-21T05:35:54.295Z,99.90
2023-11-21T05:39:37.056Z,99.90
2023-11-21T05:43:19.193Z,99.90
2023-11-21T05:47:01.086Z,99.90
2023-11-21T05:50:42.972Z,99.90
2023-11-21T05:54:27.865Z,99.90
2023-11-21T05:58:09.833Z,99.90
2023-11-21T06:01:51.681Z,99.90
2023-11-21T06:05:34.599Z,99.90
2023-11-21T06:09:16.445Z,99.90
2023-11-21T06:13:01.513Z,99.90
2023-11-21T06:16:46.642Z,99.90
2023-11-21T06:20:28.647Z,99.90
2023-11-21T06:24:11.698Z,99.90
2023-11-21T06:27:55.026Z,99.90
2023-11-21T06:31:37.073Z,99.90
2023-11-21T06:35:19.037Z,99.90
2023-11-21T06:39:00.894Z,99.90
2023-11-21T06:42:42.917Z,99.90
2023-11-21T06:46:25.104Z,99.70
2023-11-21T06:50:08.268Z,99.50
2023-11-21T06:53:50.067Z,99.40
2023-11-21T06:57:32.611Z,99.20
2023-11-21T07:01:15.090Z,99.20
2023-11-21T07:04:56.983Z,99.00
2023-11-21T07:08:39.083Z,98.90
2023-11-21T07:12:21.009Z,98.80
2023-11-21T07:16:02.885Z,98.70
2023-11-21T07:19:44.765Z,98.50
2023-11-21T07:23:27.021Z,98.50
2023-11-21T07:27:08.883Z,98.40
2023-11-21T07:30:50.720Z,98.30
2023-11-21T07:34:32.558Z,98.30
2023-11-21T07:38:14.395Z,98.10
2023-11-21T07:41:56.431Z,98.10
2023-11-21T07:45:38.376Z,97.90
2023-11-21T07:49:22.354Z,97.80
2023-11-21T07:53:06.886Z,97.60
2023-11-21T07:56:48.835Z,97.60
2023-11-21T08:00:32.192Z,97.50
2023-11-21T08:04:14.090Z,97.40
2023-11-21T08:07:56.394Z,97.30
2023-11-21T08:11:40.100Z,97.40
2023-11-21T08:15:21.985Z,97.30
2023-11-21T08:19:04.209Z,97.30
2023-11-21T08:22:46.209Z,97.30
2023-11-21T08:26:28.450Z,97.20
2023-11-21T08:30:10.850Z,97.20
2023-11-21T08:33:52.799Z,97.20
2023-11-21T08:37:38.373Z,97.20
2023-11-21T08:41:22.309Z,97.10
2023-11-21T08:45:04.740Z,97.30
2023-11-21T08:48:47.012Z,97.30
2023-11-21T08:52:28.905Z,97.30
2023-11-21T08:56:16.749Z,97.40
2023-11-21T08:59:58.695Z,97.40
2023-11-21T09:03:40.758Z,97.40
2023-11-21T09:07:22.761Z,97.40
2023-11-21T09:11:04.671Z,97.40
2023-11-21T09:14:46.557Z,97.50
2023-11-21T09:18:28.492Z,97.50
2023-11-21T09:22:10.460Z,97.50
2023-11-21T09:25:53.109Z,97.50
2023-11-21T09:29:35.135Z,97.50
2023-11-21T09:33:17.288Z,97.50
2023-11-21T09:36:59.232Z,97.50
2023-11-21T09:40:41.277Z,97.40
2023-11-21T09:44:43.464Z,97.40
2023-11-21T09:48:27.014Z,97.50
2023-11-21T09:52:16.490Z,97.40
2023-11-21T09:55:58.480Z,97.20
2023-11-21T09:59:41.697Z,97.30
2023-11-21T10:03:23.667Z,97.30
2023-11-21T10:07:10.102Z,97.20
2023-11-21T10:10:55.471Z,97.20
2023-11-21T10:14:42.345Z,97.20
2023-11-21T10:18:26.342Z,97.20
2023-11-21T10:22:08.202Z,97.20
2023-11-21T10:25:52.104Z,97.20
2023-11-21T10:29:36.880Z,97.40
2023-11-21T10:33:21.582Z,97.20
2023-11-21T10:37:13.610Z,97.10
2023-11-21T10:40:56.450Z,97.30
2023-11-21T10:44:39.008Z,97.30
2023-11-21T10:48:21.776Z,97.30
2023-11-21T10:52:05.063Z,97.30
2023-11-21T10:55:47.071Z,97.40
2023-11-21T10:59:33.731Z,97.40
2023-11-21T11:03:17.604Z,97.50
2023-11-21T11:07:06.145Z,97.90
2023-11-21T11:10:51.496Z,97.60
2023-11-21T11:14:34.268Z,97.60
2023-11-21T11:18:17.526Z,97.50
2023-11-21T11:22:05.692Z,97.50
2023-11-21T11:26:13.381Z,97.50
2023-11-21T11:30:02.372Z,97.60
2023-11-21T11:33:46.564Z,97.60
2023-11-21T11:37:28.694Z,97.80
2023-11-21T11:41:11.413Z,97.80
2023-11-21T11:44:54.626Z,97.90
2023-11-21T11:48:40.810Z,97.90
2023-11-21T11:52:40.821Z,98.00
2023-11-21T11:56:35.509Z,98.20
2023-11-21T12:00:23.856Z,98.30
2023-11-21T12:04:35.333Z,98.40
2023-11-21T12:08:17.622Z,98.50
2023-11-21T12:11:59.638Z,98.60
2023-11-21T12:15:43.255Z,98.50
2023-11-21T12:19:25.372Z,98.40
2023-11-21T12:23:10.182Z,98.50
2023-11-21T12:26:52.256Z,98.40
2023-11-21T12:30:37.202Z,98.20
2023-11-21T12:34:19.438Z,98.30
2023-11-21T12:38:10.622Z,98.10
2023-11-21T12:41:52.670Z,98.00
2023-11-21T12:45:35.151Z,97.90
2023-11-21T12:49:19.581Z,97.90
2023-11-21T12:53:17.781Z,97.60
2023-11-21T12:57:01.203Z,97.60
2023-11-21T13:00:50.733Z,97.50
2023-11-21T13:04:36.003Z,97.60
2023-11-21T13:08:22.002Z,97.80
2023-11-21T13:12:04.747Z,97.80
2023-11-21T13:15:56.944Z,97.70
2023-11-21T13:19:38.887Z,97.50
2023-11-21T13:23:20.730Z,97.40
2023-11-21T13:27:02.564Z,97.30
2023-11-21T13:30:45.863Z,97.30
2023-11-21T13:34:32.011Z,97.10
2023-11-21T13:38:18.172Z,97.20
2023-11-21T13:42:00.011Z,97.20
2023-11-21T13:45:44.650Z,97.20
2023-11-21T13:49:27.926Z,97.10
2023-11-21T13:53:17.479Z,97.20
2023-11-21T13:57:01.818Z,97.30
2023-11-21T14:00:46.617Z,97.30
2023-11-21T14:04:31.376Z,97.40
2023-11-21T14:08:15.381Z,97.80
2023-11-21T14:11:58.351Z,97.50
2023-11-21T14:15:46.418Z,97.50
2023-11-21T14:19:32.708Z,97.60
2023-11-21T14:23:16.062Z,97.50
2023-11-21T14:26:57.869Z,97.40
2023-11-21T14:30:40.872Z,97.40
2023-11-21T14:34:23.564Z,97.40
2023-11-21T14:38:06.121Z,97.30
2023-11-21T14:41:48.194Z,97.20
2023-11-21T14:45:31.094Z,97.00
2023-11-21T14:49:24.487Z,96.80
2023-11-21T14:53:07.374Z,96.60
2023-11-21T14:56:49.195Z,96.60
2023-11-21T15:00:36.977Z,96.20
2023-11-21T15:04:36.686Z,96.10
2023-11-21T15:08:24.993Z,96.10
2023-11-21T15:12:16.255Z,96.00
2023-11-21T15:16:04.777Z,96.20
2023-11-21T15:19:46.743Z,96.40
2023-11-21T15:23:29.443Z,96.50
2023-11-21T15:27:12.073Z,96.70
2023-11-21T15:30:54.132Z,96.90
2023-11-21T15:34:38.313Z,97.20
2023-11-21T15:38:21.057Z,97.20
2023-11-21T15:42:05.203Z,97.40
2023-11-21T15:45:47.155Z,97.60
2023-11-21T15:49:31.098Z,97.50
2023-11-21T15:53:13.331Z,97.60
2023-11-21T15:56:58.700Z,97.60
2023-11-21T16:00:40.579Z,97.60
2023-11-21T16:04:24.572Z,97.50
2023-11-21T16:08:06.617Z,97.50
2023-11-21T16:11:49.647Z,97.40
2023-11-21T16:15:32.118Z,97.50
2023-11-21T16:19:13.968Z,97.50
2023-11-21T16:22:55.879Z,97.40
2023-11-21T16:26:37.688Z,97.50
2023-11-21T16:30:19.963Z,97.50
2023-11-21T16:34:08.835Z,97.60
2023-11-21T16:37:50.981Z,97.60
2023-11-21T16:41:33.881Z,97.70
2023-11-21T16:45:15.852Z,97.60
2023-11-21T16:48:57.668Z,97.70
2023-11-21T16:52:42.339Z,97.70
2023-11-21T16:56:25.364Z,97.70
2023-11-21T17:00:08.626Z,97.70
2023-11-21T17:03:52.351Z,97.60
2023-11-21T17:07:34.510Z,97.50
2023-11-21T17:11:16.444Z,97.40
2023-11-21T17:15:00.180Z,97.40
2023-11-21T17:18:42.040Z,97.30
2023-11-21T17:22:24.023Z,97.30
2023-11-21T17:26:06.138Z,97.20
2023-11-21T17:29:48.123Z,97.20
2023-11-21T17:33:30.092Z,97.20
2023-11-21T17:37:13.110Z,97.20
2023-11-21T17:40:55.106Z,97.10
2023-11-21T17:44:37.177Z,97.00
2023-11-21T17:48:19.211Z,97.00
2023-11-21T17:52:01.071Z,96.80
2023-11-21T17:55:42.918Z,96.80
2023-11-21T17:59:24.814Z,96.70
2023-11-21T18:03:06.795Z,96.60
2023-11-21T18:06:48.771Z,96.60
2023-11-21T18:10:30.589Z,96.50
2023-11-21T18:14:13.076Z,96.50
2023-11-21T18:17:55.165Z,96.40
2023-11-21T18:21:45.435Z,96.30
2023-11-21T18:25:29.881Z,96.30
2023-11-21T18:29:12.042Z,96.40
2023-11-21T18:32:54.066Z,96.20
2023-11-21T18:36:36.083Z,96.20
2023-11-21T18:40:18.412Z,96.30
2023-11-21T18:44:00.691Z,96.40
2023-11-21T18:47:43.141Z,96.40
2023-11-21T18:51:25.316Z,96.40
2023-11-21T18:55:07.957Z,96.40
2023-11-21T18:58:49.838Z,96.40
2023-11-21T19:02:31.900Z,96.50
2023-11-21T19:06:13.867Z,96.40
2023-11-21T19:09:56.288Z,96.50
2023-11-21T19:13:38.385Z,96.40
2023-11-21T19:17:21.624Z,96.50
2023-11-21T19:21:04.366Z,96.40
2023-11-21T19:24:46.231Z,96.40
2023-11-21T19:28:28.119Z,96.40
2023-11-21T19:32:09.985Z,96.40
2023-11-21T19:35:51.911Z,96.40
2023-11-21T19:39:33.804Z,96.50
2023-11-21T19:43:15.664Z,96.60
2023-11-21T19:46:57.645Z,96.70
2023-11-21T19:50:39.489Z,96.70
2023-11-21T19:54:21.445Z,96.80
2023-11-21T19:58:03.721Z,96.80
2023-11-21T20:01:45.726Z,96.80
2023-11-21T20:05:27.997Z,96.90
2023-11-21T20:09:11.229Z,97.00
2023-11-21T20:12:58.751Z,97.00
2023-11-21T20:16:44.132Z,97.00
2023-11-21T20:20:26.156Z,97.00
2023-11-21T20:24:08.673Z,97.00
2023-11-21T20:27:50.720Z,96.90
2023-11-21T20:31:32.541Z,96.90
2023-11-21T20:35:14.506Z,96.80
2023-11-21T20:38:56.364Z,96.80
2023-11-21T20:42:43.108Z,96.70
2023-11-21T20:46:25.015Z,96.70
2023-11-21T20:50:08.082Z,96.80
2023-11-21T20:53:50.132Z,96.90
2023-11-21T20:57:32.043Z,96.90
2023-11-21T21:01:15.049Z,97.00
2023-11-21T21:04:57.073Z,97.10
2023-11-21T21:08:39.833Z,97.30
2023-11-21T21:12:21.636Z,97.20
2023-11-21T21:16:03.638Z,97.20
2023-11-21T21:19:45.586Z,97.30
2023-11-21T21:23:27.372Z,97.40
2023-11-21T21:27:09.242Z,97.40
2023-11-21T21:30:51.125Z,97.40
2023-11-21T21:34:33.138Z,97.40
2023-11-21T21:38:15.098Z,97.40
2023-11-21T21:41:57.450Z,97.50
2023-11-21T21:45:39.423Z,97.50
2023-11-21T21:49:21.310Z,97.50
2023-11-21T21:53:03.333Z,97.50
2023-11-21T21:56:45.213Z,97.60
2023-11-21T22:00:32.864Z,97.70
2023-11-21T22:04:15.051Z,97.70
2023-11-21T22:07:56.924Z,97.80
2023-11-21T22:11:40.415Z,97.80
2023-11-21T22:15:22.659Z,97.90
2023-11-21T22:19:04.621Z,97.90
2023-11-21T22:22:46.655Z,97.90
2023-11-21T22:26:29.022Z,97.90
2023-11-21T22:30:11.675Z,98.00
2023-11-21T22:33:53.536Z,98.00
2023-11-21T22:37:35.357Z,98.00
2023-11-21T22:41:27.783Z,98.10
2023-11-21T22:45:10.004Z,98.10
2023-11-21T22:48:52.255Z,98.10
2023-11-21T22:52:34.872Z,98.10
2023-11-21T22:56:16.990Z,98.20
2023-11-21T22:59:58.917Z,98.20
2023-11-21T23:03:41.282Z,98.20
2023-11-21T23:07:23.153Z,98.20
2023-11-21T23:11:05.955Z,98.20
2023-11-21T23:14:47.763Z,98.20
2023-11-21T23:18:29.827Z,98.20
2023-11-21T23:22:11.640Z,98.10
2023-11-21T23:25:56.950Z,98.10
2023-11-21T23:29:47.487Z,98.10
2023-11-21T23:33:31.850Z,98.20
2023-11-21T23:37:13.938Z,98.20
2023-11-21T23:40:55.772Z,98.20
2023-11-21T23:44:37.619Z,98.20
2023-11-21T23:48:19.447Z,98.30
2023-11-21T23:52:01.294Z,98.30
2023-11-21T23:55:43.205Z,98.30
2023-11-21T23:59:25.833Z,98.30
